sensor_id;sensor_type;location;lat;lon;timestamp;temperature;humidity
35491;DHT22;21605;52.068;20.806;2022-12-04T00:01:22;1.90;99.90
35491;DHT22;21605;52.068;20.806;2022-12-04T00:03:52;1.90;99.90
35491;DHT22;21605;52.068;20.806;2022-12-04T00:06:18;1.90;99.90
35491;DHT22;21605;52.068;20.806;2022-12-04T00:08:45;1.90;99.90
35491;DHT22;21605;52.068;20.806;2022-12-04T00:11:25;1.90;99.90
35491;DHT22;21605;52.068;20.806;2022-12-04T00:13:51;2.00;99.90
35491;DHT22;21605;52.068;20.806;2022-12-04T00:16:21;1.90;99.90
35491;DHT22;21605;52.068;20.806;2022-12-04T00:18:48;2.00;99.90
35491;DHT22;21605;52.068;20.806;2022-12-04T00:21:20;2.00;99.90
35491;DHT22;21605;52.068;20.806;2022-12-04T00:23:46;1.80;99.90
35491;DHT22;21605;52.068;20.806;2022-12-04T00:26:23;1.80;99.90
35491;DHT22;21605;52.068;20.806;2022-12-04T00:28:50;1.80;99.90
35491;DHT22;21605;52.068;20.806;2022-12-04T00:31:21;1.80;99.90
35491;DHT22;21605;52.068;20.806;2022-12-04T00:33:47;1.90;99.90
35491;DHT22;21605;52.068;20.806;2022-12-04T00:36:21;1.80;99.90
35491;DHT22;21605;52.068;20.806;2022-12-04T00:38:47;1.80;99.90
35491;DHT22;21605;52.068;20.806;2022-12-04T00:41:24;1.80;99.90
35491;DHT22;21605;52.068;20.806;2022-12-04T00:43:50;1.80;99.90
35491;DHT22;21605;52.068;20.806;2022-12-04T00:46:21;1.80;99.90
35491;DHT22;21605;52.068;20.806;2022-12-04T00:48:47;1.80;99.90
35491;DHT22;21605;52.068;20.806;2022-12-04T00:51:23;1.90;99.90
35491;DHT22;21605;52.068;20.806;2022-12-04T00:53:50;1.90;99.90
35491;DHT22;21605;52.068;20.806;2022-12-04T00:56:26;1.90;99.90
35491;DHT22;21605;52.068;20.806;2022-12-04T00:58:54;2.00;99.90
35491;DHT22;21605;52.068;20.806;2022-12-04T01:01:21;2.00;99.90
35491;DHT22;21605;52.068;20.806;2022-12-04T01:03:47;1.90;99.90
35491;DHT22;21605;52.068;20.806;2022-12-04T01:06:32;1.90;99.90
35491;DHT22;21605;52.068;20.806;2022-12-04T01:09:00;1.90;99.90
35491;DHT22;21605;52.068;20.806;2022-12-04T01:11:27;1.90;99.90
35491;DHT22;21605;52.068;20.806;2022-12-04T01:13:53;1.90;99.90
35491;DHT22;21605;52.068;20.806;2022-12-04T01:16:28;1.80;99.90
35491;DHT22;21605;52.068;20.806;2022-12-04T01:18:54;1.80;99.90
35491;DHT22;21605;52.068;20.806;2022-12-04T01:21:23;1.80;99.90
35491;DHT22;21605;52.068;20.806;2022-12-04T01:23:49;1.90;99.90
35491;DHT22;21605;52.068;20.806;2022-12-04T01:26:39;1.90;99.90
35491;DHT22;21605;52.068;20.806;2022-12-04T01:29:05;1.90;99.90
35491;DHT22;21605;52.068;20.806;2022-12-04T01:31:31;1.90;99.90
35491;DHT22;21605;52.068;20.806;2022-12-04T01:33:57;1.90;99.90
35491;DHT22;21605;52.068;20.806;2022-12-04T01:36:26;2.00;99.90
35491;DHT22;21605;52.068;20.806;2022-12-04T01:38:52;1.90;99.90
35491;DHT22;21605;52.068;20.806;2022-12-04T01:41:27;1.90;99.90
35491;DHT22;21605;52.068;20.806;2022-12-04T01:46:31;1.80;99.90
35491;DHT22;21605;52.068;20.806;2022-12-04T01:48:57;1.80;99.90
35491;DHT22;21605;52.068;20.806;2022-12-04T01:51:25;1.80;99.90
35491;DHT22;21605;52.068;20.806;2022-12-04T01:53:57;1.70;99.90
35491;DHT22;21605;52.068;20.806;2022-12-04T01:56:42;1.80;99.90
35491;DHT22;21605;52.068;20.806;2022-12-04T01:59:09;1.80;99.90
35491;DHT22;21605;52.068;20.806;2022-12-04T02:01:41;1.80;99.90
35491;DHT22;21605;52.068;20.806;2022-12-04T02:04:08;1.80;99.90
35491;DHT22;21605;52.068;20.806;2022-12-04T02:06:34;1.80;99.90
35491;DHT22;21605;52.068;20.806;2022-12-04T02:09:00;1.80;99.90
35491;DHT22;21605;52.068;20.806;2022-12-04T02:11:52;1.70;99.90
35491;DHT22;21605;52.068;20.806;2022-12-04T02:17:34;1.80;99.90
35491;DHT22;21605;52.068;20.806;2022-12-04T02:34:17;1.80;99.90
35491;DHT22;21605;52.068;20.806;2022-12-04T02:37:07;2.40;99.90
35491;DHT22;21605;52.068;20.806;2022-12-04T02:39:43;1.80;99.90
35491;DHT22;21605;52.068;20.806;2022-12-04T02:42:17;1.80;99.90
35491;DHT22;21605;52.068;20.806;2022-12-04T02:45:08;1.80;99.90
35491;DHT22;21605;52.068;20.806;2022-12-04T02:47:35;1.80;99.90
35491;DHT22;21605;52.068;20.806;2022-12-04T02:50:13;1.80;99.90
35491;DHT22;21605;52.068;20.806;2022-12-04T02:52:53;2.30;99.90
35491;DHT22;21605;52.068;20.806;2022-12-04T02:55:34;1.80;99.90
35491;DHT22;21605;52.068;20.806;2022-12-04T02:58:16;1.70;99.90
35491;DHT22;21605;52.068;20.806;2022-12-04T03:00:56;1.80;99.90
35491;DHT22;21605;52.068;20.806;2022-12-04T03:03:27;1.80;99.90
35491;DHT22;21605;52.068;20.806;2022-12-04T03:05:54;1.80;99.90
35491;DHT22;21605;52.068;20.806;2022-12-04T03:08:38;2.90;99.90
35491;DHT22;21605;52.068;20.806;2022-12-04T03:11:06;1.80;99.90
35491;DHT22;21605;52.068;20.806;2022-12-04T03:16:15;1.80;99.90
35491;DHT22;21605;52.068;20.806;2022-12-04T03:18:46;1.80;99.90
35491;DHT22;21605;52.068;20.806;2022-12-04T03:21:18;1.80;99.90
35491;DHT22;21605;52.068;20.806;2022-12-04T03:27:12;1.80;99.90
35491;DHT22;21605;52.068;20.806;2022-12-04T03:29:45;1.80;99.90
35491;DHT22;21605;52.068;20.806;2022-12-04T03:32:45;1.80;99.90
35491;DHT22;21605;52.068;20.806;2022-12-04T03:43:41;1.80;99.90
35491;DHT22;21605;52.068;20.806;2022-12-04T03:46:29;1.70;99.90
35491;DHT22;21605;52.068;20.806;2022-12-04T03:49:12;1.70;99.90
35491;DHT22;21605;52.068;20.806;2022-12-04T03:52:01;1.80;99.90
35491;DHT22;21605;52.068;20.806;2022-12-04T03:54:39;1.80;99.90
35491;DHT22;21605;52.068;20.806;2022-12-04T03:57:18;1.90;99.90
35491;DHT22;21605;52.068;20.806;2022-12-04T03:59:59;1.80;99.90
35491;DHT22;21605;52.068;20.806;2022-12-04T04:02:52;1.80;99.90
35491;DHT22;21605;52.068;20.806;2022-12-04T04:05:24;1.80;99.90
35491;DHT22;21605;52.068;20.806;2022-12-04T04:07:56;1.80;99.90
35491;DHT22;21605;52.068;20.806;2022-12-04T04:10:43;1.80;99.90
35491;DHT22;21605;52.068;20.806;2022-12-04T04:13:14;1.80;99.90
35491;DHT22;21605;52.068;20.806;2022-12-04T04:16:02;1.70;99.90
35491;DHT22;21605;52.068;20.806;2022-12-04T04:18:50;1.80;99.90
35491;DHT22;21605;52.068;20.806;2022-12-04T04:21:36;1.80;99.90
35491;DHT22;21605;52.068;20.806;2022-12-04T04:27:00;1.70;99.90
35491;DHT22;21605;52.068;20.806;2022-12-04T04:29:36;1.70;99.90
35491;DHT22;21605;52.068;20.806;2022-12-04T04:32:04;1.70;99.90
35491;DHT22;21605;52.068;20.806;2022-12-04T04:37:53;1.70;99.90
35491;DHT22;21605;52.068;20.806;2022-12-04T04:40:39;1.70;99.90
35491;DHT22;21605;52.068;20.806;2022-12-04T04:43:09;1.70;99.90
35491;DHT22;21605;52.068;20.806;2022-12-04T04:48:13;1.70;99.90
35491;DHT22;21605;52.068;20.806;2022-12-04T04:50:40;1.70;99.90
35491;DHT22;21605;52.068;20.806;2022-12-04T04:53:14;1.70;99.90
35491;DHT22;21605;52.068;20.806;2022-12-04T04:55:42;1.70;99.90
35491;DHT22;21605;52.068;20.806;2022-12-04T04:58:10;1.80;99.90
35491;DHT22;21605;52.068;20.806;2022-12-04T05:01:03;1.60;99.90
35491;DHT22;21605;52.068;20.806;2022-12-04T05:03:34;1.60;99.90
35491;DHT22;21605;52.068;20.806;2022-12-04T05:06:00;1.70;99.90
35491;DHT22;21605;52.068;20.806;2022-12-04T05:08:32;1.60;99.90
35491;DHT22;21605;52.068;20.806;2022-12-04T05:10:58;1.60;99.90
35491;DHT22;21605;52.068;20.806;2022-12-04T05:13:32;1.60;99.90
35491;DHT22;21605;52.068;20.806;2022-12-04T05:16:04;1.70;99.90
35491;DHT22;21605;52.068;20.806;2022-12-04T05:18:33;1.70;99.90
35491;DHT22;21605;52.068;20.806;2022-12-04T05:21:06;1.70;99.90
35491;DHT22;21605;52.068;20.806;2022-12-04T05:23:32;1.70;99.90
35491;DHT22;21605;52.068;20.806;2022-12-04T05:26:02;1.60;99.90
35491;DHT22;21605;52.068;20.806;2022-12-04T05:28:34;1.70;99.90
35491;DHT22;21605;52.068;20.806;2022-12-04T05:31:01;1.70;99.90
35491;DHT22;21605;52.068;20.806;2022-12-04T05:33:33;1.70;99.90
35491;DHT22;21605;52.068;20.806;2022-12-04T05:36:01;1.70;99.90
35491;DHT22;21605;52.068;20.806;2022-12-04T05:38:27;1.70;99.90
35491;DHT22;21605;52.068;20.806;2022-12-04T05:40:53;1.70;99.90
35491;DHT22;21605;52.068;20.806;2022-12-04T05:43:19;1.70;99.90
35491;DHT22;21605;52.068;20.806;2022-12-04T05:45:44;1.60;99.90
35491;DHT22;21605;52.068;20.806;2022-12-04T05:48:10;1.70;99.90
35491;DHT22;21605;52.068;20.806;2022-12-04T05:50:37;1.70;99.90
35491;DHT22;21605;52.068;20.806;2022-12-04T05:53:03;1.70;99.90
35491;DHT22;21605;52.068;20.806;2022-12-04T05:55:35;1.70;99.90
35491;DHT22;21605;52.068;20.806;2022-12-04T05:58:00;1.70;99.90
35491;DHT22;21605;52.068;20.806;2022-12-04T06:00:35;1.00;99.90
35491;DHT22;21605;52.068;20.806;2022-12-04T06:03:01;1.70;99.90
35491;DHT22;21605;52.068;20.806;2022-12-04T06:05:36;1.60;99.90
35491;DHT22;21605;52.068;20.806;2022-12-04T06:08:01;1.60;99.90
35491;DHT22;21605;52.068;20.806;2022-12-04T06:10:32;1.60;99.90
35491;DHT22;21605;52.068;20.806;2022-12-04T06:12:57;1.60;99.90
35491;DHT22;21605;52.068;20.806;2022-12-04T06:15:23;1.60;99.90
35491;DHT22;21605;52.068;20.806;2022-12-04T06:17:49;1.60;99.90
35491;DHT22;21605;52.068;20.806;2022-12-04T06:20:15;1.70;99.90
35491;DHT22;21605;52.068;20.806;2022-12-04T06:22:41;1.60;99.90
35491;DHT22;21605;52.068;20.806;2022-12-04T06:25:07;1.60;99.90
35491;DHT22;21605;52.068;20.806;2022-12-04T06:27:33;1.60;99.90
35491;DHT22;21605;52.068;20.806;2022-12-04T06:29:58;1.50;99.90
35491;DHT22;21605;52.068;20.806;2022-12-04T06:32:24;1.50;99.90
35491;DHT22;21605;52.068;20.806;2022-12-04T06:34:51;1.50;99.90
35491;DHT22;21605;52.068;20.806;2022-12-04T06:37:21;1.60;99.90
35491;DHT22;21605;52.068;20.806;2022-12-04T06:39:47;1.60;99.90
35491;DHT22;21605;52.068;20.806;2022-12-04T06:42:13;1.60;99.90
35491;DHT22;21605;52.068;20.806;2022-12-04T06:44:39;1.60;99.90
35491;DHT22;21605;52.068;20.806;2022-12-04T06:47:04;1.50;99.90
35491;DHT22;21605;52.068;20.806;2022-12-04T06:49:39;1.60;99.90
35491;DHT22;21605;52.068;20.806;2022-12-04T06:52:04;1.60;99.90
35491;DHT22;21605;52.068;20.806;2022-12-04T06:54:39;1.60;99.90
35491;DHT22;21605;52.068;20.806;2022-12-04T06:57:05;1.60;99.90
35491;DHT22;21605;52.068;20.806;2022-12-04T06:59:36;1.60;99.90
35491;DHT22;21605;52.068;20.806;2022-12-04T07:02:01;1.60;99.90
35491;DHT22;21605;52.068;20.806;2022-12-04T07:04:27;1.60;99.90
35491;DHT22;21605;52.068;20.806;2022-12-04T07:06:53;1.50;99.90
35491;DHT22;21605;52.068;20.806;2022-12-04T07:09:19;1.60;99.90
35491;DHT22;21605;52.068;20.806;2022-12-04T07:11:44;1.60;99.90
35491;DHT22;21605;52.068;20.806;2022-12-04T07:14:11;1.70;99.90
35491;DHT22;21605;52.068;20.806;2022-12-04T07:16:41;1.60;99.90
35491;DHT22;21605;52.068;20.806;2022-12-04T07:19:08;1.60;99.90
35491;DHT22;21605;52.068;20.806;2022-12-04T07:21:35;1.60;99.90
35491;DHT22;21605;52.068;20.806;2022-12-04T07:24:01;1.60;99.90
35491;DHT22;21605;52.068;20.806;2022-12-04T07:26:28;1.60;99.90
35491;DHT22;21605;52.068;20.806;2022-12-04T07:29:03;1.60;99.90
35491;DHT22;21605;52.068;20.806;2022-12-04T07:31:38;1.70;99.90
35491;DHT22;21605;52.068;20.806;2022-12-04T07:34:04;1.60;99.90
35491;DHT22;21605;52.068;20.806;2022-12-04T07:36:30;1.60;99.90
35491;DHT22;21605;52.068;20.806;2022-12-04T07:38:55;1.70;99.90
35491;DHT22;21605;52.068;20.806;2022-12-04T07:41:21;1.60;99.90
35491;DHT22;21605;52.068;20.806;2022-12-04T07:43:47;1.60;99.90
35491;DHT22;21605;52.068;20.806;2022-12-04T07:46:20;1.60;99.90
35491;DHT22;21605;52.068;20.806;2022-12-04T07:48:45;1.60;99.90
35491;DHT22;21605;52.068;20.806;2022-12-04T07:51:14;1.60;99.90
35491;DHT22;21605;52.068;20.806;2022-12-04T07:53:40;1.70;99.90
35491;DHT22;21605;52.068;20.806;2022-12-04T07:56:07;1.60;99.90
35491;DHT22;21605;52.068;20.806;2022-12-04T07:58:40;1.70;99.90
35491;DHT22;21605;52.068;20.806;2022-12-04T08:01:11;1.70;99.90
35491;DHT22;21605;52.068;20.806;2022-12-04T08:03:37;1.70;99.90
35491;DHT22;21605;52.068;20.806;2022-12-04T08:06:04;1.70;99.90
35491;DHT22;21605;52.068;20.806;2022-12-04T08:08:43;1.70;99.90
35491;DHT22;21605;52.068;20.806;2022-12-04T08:11:11;1.70;99.90
35491;DHT22;21605;52.068;20.806;2022-12-04T08:13:46;1.70;99.90
35491;DHT22;21605;52.068;20.806;2022-12-04T08:16:12;1.70;99.90
35491;DHT22;21605;52.068;20.806;2022-12-04T08:18:39;1.70;99.90
35491;DHT22;21605;52.068;20.806;2022-12-04T08:21:10;1.70;99.90
35491;DHT22;21605;52.068;20.806;2022-12-04T08:23:47;1.70;99.90
35491;DHT22;21605;52.068;20.806;2022-12-04T08:26:13;1.70;99.90
35491;DHT22;21605;52.068;20.806;2022-12-04T08:28:39;1.70;99.90
35491;DHT22;21605;52.068;20.806;2022-12-04T08:31:09;1.60;99.90
35491;DHT22;21605;52.068;20.806;2022-12-04T08:33:35;1.60;99.90
35491;DHT22;21605;52.068;20.806;2022-12-04T08:36:01;1.70;99.90
35491;DHT22;21605;52.068;20.806;2022-12-04T08:38:29;1.70;99.90
35491;DHT22;21605;52.068;20.806;2022-12-04T08:41:02;1.80;99.90
35491;DHT22;21605;52.068;20.806;2022-12-04T08:43:28;1.70;99.90
35491;DHT22;21605;52.068;20.806;2022-12-04T08:45:56;1.70;99.90
35491;DHT22;21605;52.068;20.806;2022-12-04T08:48:21;1.70;99.90
35491;DHT22;21605;52.068;20.806;2022-12-04T08:50:47;1.60;99.90
35491;DHT22;21605;52.068;20.806;2022-12-04T08:53:13;1.70;99.90
35491;DHT22;21605;52.068;20.806;2022-12-04T08:55:38;1.70;99.90
35491;DHT22;21605;52.068;20.806;2022-12-04T08:58:04;1.60;99.90
35491;DHT22;21605;52.068;20.806;2022-12-04T09:00:29;1.60;99.90
35491;DHT22;21605;52.068;20.806;2022-12-04T09:02:56;1.70;99.90
35491;DHT22;21605;52.068;20.806;2022-12-04T09:05:21;1.70;99.90
35491;DHT22;21605;52.068;20.806;2022-12-04T09:07:47;1.70;99.90
35491;DHT22;21605;52.068;20.806;2022-12-04T09:10:12;1.70;99.90
35491;DHT22;21605;52.068;20.806;2022-12-04T09:12:47;1.80;99.90
35491;DHT22;21605;52.068;20.806;2022-12-04T09:15:13;1.80;99.90
35491;DHT22;21605;52.068;20.806;2022-12-04T09:17:44;1.80;99.90
35491;DHT22;21605;52.068;20.806;2022-12-04T09:20:10;1.80;99.90
35491;DHT22;21605;52.068;20.806;2022-12-04T09:22:45;1.80;99.90
35491;DHT22;21605;52.068;20.806;2022-12-04T09:25:10;1.80;99.90
35491;DHT22;21605;52.068;20.806;2022-12-04T09:27:37;1.80;99.90
35491;DHT22;21605;52.068;20.806;2022-12-04T09:30:06;1.80;99.90
35491;DHT22;21605;52.068;20.806;2022-12-04T09:32:32;1.80;99.90
35491;DHT22;21605;52.068;20.806;2022-12-04T09:34:58;1.80;99.90
35491;DHT22;21605;52.068;20.806;2022-12-04T09:37:23;1.90;99.90
35491;DHT22;21605;52.068;20.806;2022-12-04T09:39:49;1.90;99.90
35491;DHT22;21605;52.068;20.806;2022-12-04T09:45:02;1.90;99.90
35491;DHT22;21605;52.068;20.806;2022-12-04T09:47:35;1.90;99.90
35491;DHT22;21605;52.068;20.806;2022-12-04T09:50:23;1.90;99.90
35491;DHT22;21605;52.068;20.806;2022-12-04T09:55:31;1.90;99.90
35491;DHT22;21605;52.068;20.806;2022-12-04T09:58:00;1.90;99.90
35491;DHT22;21605;52.068;20.806;2022-12-04T10:00:28;1.90;99.90
35491;DHT22;21605;52.068;20.806;2022-12-04T10:03:03;1.90;99.90
35491;DHT22;21605;52.068;20.806;2022-12-04T10:06:07;1.90;99.90
35491;DHT22;21605;52.068;20.806;2022-12-04T10:08:45;1.90;99.90
35491;DHT22;21605;52.068;20.806;2022-12-04T10:11:29;1.80;99.90
35491;DHT22;21605;52.068;20.806;2022-12-04T10:27:30;1.90;99.90
35491;DHT22;21605;52.068;20.806;2022-12-04T10:30:20;1.90;99.90
35491;DHT22;21605;52.068;20.806;2022-12-04T10:32:47;1.90;99.90
35491;DHT22;21605;52.068;20.806;2022-12-04T10:35:28;1.90;99.90
35491;DHT22;21605;52.068;20.806;2022-12-04T10:40:54;1.90;99.90
35491;DHT22;21605;52.068;20.806;2022-12-04T10:43:40;2.00;99.90
35491;DHT22;21605;52.068;20.806;2022-12-04T10:46:12;1.90;99.90
35491;DHT22;21605;52.068;20.806;2022-12-04T10:48:39;1.90;99.90
35491;DHT22;21605;52.068;20.806;2022-12-04T10:51:08;1.90;99.90
35491;DHT22;21605;52.068;20.806;2022-12-04T10:53:37;1.90;99.90
35491;DHT22;21605;52.068;20.806;2022-12-04T10:58:34;1.90;99.90
35491;DHT22;21605;52.068;20.806;2022-12-04T11:01:08;1.90;99.90
35491;DHT22;21605;52.068;20.806;2022-12-04T11:03:35;2.00;99.90
35491;DHT22;21605;52.068;20.806;2022-12-04T11:06:03;2.00;99.90
35491;DHT22;21605;52.068;20.806;2022-12-04T11:08:36;2.00;99.90
35491;DHT22;21605;52.068;20.806;2022-12-04T16:13:29;2.00;99.90
35491;DHT22;21605;52.068;20.806;2022-12-04T16:15:55;2.00;99.90
35491;DHT22;21605;52.068;20.806;2022-12-04T16:18:23;2.00;99.90
35491;DHT22;21605;52.068;20.806;2022-12-04T16:20:49;2.00;99.90
35491;DHT22;21605;52.068;20.806;2022-12-04T16:23:15;1.90;99.90
35491;DHT22;21605;52.068;20.806;2022-12-04T16:25:41;2.00;99.90
35491;DHT22;21605;52.068;20.806;2022-12-04T16:28:06;2.00;99.90
35491;DHT22;21605;52.068;20.806;2022-12-04T16:30:33;2.00;99.90
35491;DHT22;21605;52.068;20.806;2022-12-04T16:32:59;2.00;99.90
35491;DHT22;21605;52.068;20.806;2022-12-04T16:35:25;2.00;99.90
35491;DHT22;21605;52.068;20.806;2022-12-04T16:37:52;1.90;99.90
35491;DHT22;21605;52.068;20.806;2022-12-04T16:40:17;1.80;99.90
35491;DHT22;21605;52.068;20.806;2022-12-04T16:42:43;1.90;99.90
35491;DHT22;21605;52.068;20.806;2022-12-04T16:47:43;1.90;99.90
35491;DHT22;21605;52.068;20.806;2022-12-04T16:50:09;1.80;99.90
35491;DHT22;21605;52.068;20.806;2022-12-04T16:52:35;1.90;99.90
35491;DHT22;21605;52.068;20.806;2022-12-04T16:55:01;1.90;99.90
35491;DHT22;21605;52.068;20.806;2022-12-04T16:57:26;1.80;99.90
35491;DHT22;21605;52.068;20.806;2022-12-04T16:59:52;1.90;99.90
35491;DHT22;21605;52.068;20.806;2022-12-04T17:02:22;1.90;99.90
35491;DHT22;21605;52.068;20.806;2022-12-04T17:04:50;1.90;99.90
35491;DHT22;21605;52.068;20.806;2022-12-04T17:07:15;1.90;99.90
35491;DHT22;21605;52.068;20.806;2022-12-04T17:09:41;1.80;99.90
35491;DHT22;21605;52.068;20.806;2022-12-04T17:12:07;1.80;99.90
35491;DHT22;21605;52.068;20.806;2022-12-04T17:14:33;1.80;99.90
35491;DHT22;21605;52.068;20.806;2022-12-04T17:16:59;1.90;99.90
35491;DHT22;21605;52.068;20.806;2022-12-04T17:19:25;1.90;99.90
35491;DHT22;21605;52.068;20.806;2022-12-04T17:21:51;1.80;99.90
35491;DHT22;21605;52.068;20.806;2022-12-04T17:24:16;1.80;99.90
35491;DHT22;21605;52.068;20.806;2022-12-04T17:26:42;1.80;99.90
35491;DHT22;21605;52.068;20.806;2022-12-04T17:29:07;1.80;99.90
35491;DHT22;21605;52.068;20.806;2022-12-04T17:31:33;1.80;99.90
35491;DHT22;21605;52.068;20.806;2022-12-04T17:33:59;1.80;99.90
35491;DHT22;21605;52.068;20.806;2022-12-04T17:36:25;1.80;99.90
35491;DHT22;21605;52.068;20.806;2022-12-04T17:38:56;1.80;99.90
35491;DHT22;21605;52.068;20.806;2022-12-04T17:41:22;1.80;99.90
35491;DHT22;21605;52.068;20.806;2022-12-04T17:43:48;1.80;99.90
35491;DHT22;21605;52.068;20.806;2022-12-04T17:46:15;1.70;99.90
35491;DHT22;21605;52.068;20.806;2022-12-04T17:48:42;1.70;99.90
35491;DHT22;21605;52.068;20.806;2022-12-04T17:51:16;1.70;99.90
35491;DHT22;21605;52.068;20.806;2022-12-04T17:53:43;1.70;99.90
35491;DHT22;21605;52.068;20.806;2022-12-04T17:56:13;1.70;99.90
35491;DHT22;21605;52.068;20.806;2022-12-04T17:58:41;1.70;99.90
35491;DHT22;21605;52.068;20.806;2022-12-04T18:01:13;1.70;99.90
35491;DHT22;21605;52.068;20.806;2022-12-04T18:03:39;1.70;99.90
35491;DHT22;21605;52.068;20.806;2022-12-04T18:06:30;1.70;99.90
35491;DHT22;21605;52.068;20.806;2022-12-04T18:08:56;1.70;99.90
35491;DHT22;21605;52.068;20.806;2022-12-04T18:11:26;1.60;99.90
35491;DHT22;21605;52.068;20.806;2022-12-04T18:14:06;1.70;99.90
35491;DHT22;21605;52.068;20.806;2022-12-04T18:16:33;1.70;99.90
35491;DHT22;21605;52.068;20.806;2022-12-04T18:19:01;1.70;99.90
35491;DHT22;21605;52.068;20.806;2022-12-04T18:21:27;1.60;99.90
35491;DHT22;21605;52.068;20.806;2022-12-04T18:23:56;1.70;99.90
35491;DHT22;21605;52.068;20.806;2022-12-04T18:26:24;1.70;99.90
35491;DHT22;21605;52.068;20.806;2022-12-04T18:28:50;1.70;99.90
35491;DHT22;21605;52.068;20.806;2022-12-04T18:31:17;1.70;99.90
35491;DHT22;21605;52.068;20.806;2022-12-04T18:33:43;1.70;99.90
35491;DHT22;21605;52.068;20.806;2022-12-04T18:36:17;1.90;99.90
35491;DHT22;21605;52.068;20.806;2022-12-04T18:38:43;1.80;99.90
35491;DHT22;21605;52.068;20.806;2022-12-04T18:41:10;1.90;99.90
35491;DHT22;21605;52.068;20.806;2022-12-04T18:43:39;1.80;99.90
35491;DHT22;21605;52.068;20.806;2022-12-04T18:46:08;1.90;99.90
35491;DHT22;21605;52.068;20.806;2022-12-04T18:48:35;1.80;99.90
35491;DHT22;21605;52.068;20.806;2022-12-04T18:53:41;1.80;99.90
35491;DHT22;21605;52.068;20.806;2022-12-04T18:56:06;1.80;99.90
35491;DHT22;21605;52.068;20.806;2022-12-04T18:58:32;1.80;99.90
35491;DHT22;21605;52.068;20.806;2022-12-04T19:01:11;1.80;99.90
35491;DHT22;21605;52.068;20.806;2022-12-04T19:04:01;1.80;99.90
35491;DHT22;21605;52.068;20.806;2022-12-04T19:06:30;1.80;99.90
35491;DHT22;21605;52.068;20.806;2022-12-04T19:08:58;1.80;99.90
35491;DHT22;21605;52.068;20.806;2022-12-04T19:11:24;1.80;99.90
35491;DHT22;21605;52.068;20.806;2022-12-04T19:13:50;1.80;99.90
35491;DHT22;21605;52.068;20.806;2022-12-04T19:16:16;1.80;99.90
35491;DHT22;21605;52.068;20.806;2022-12-04T19:18:43;1.80;99.90
35491;DHT22;21605;52.068;20.806;2022-12-04T19:21:13;1.80;99.90
35491;DHT22;21605;52.068;20.806;2022-12-04T19:23:40;1.80;99.90
35491;DHT22;21605;52.068;20.806;2022-12-04T19:26:06;1.70;99.90
35491;DHT22;21605;52.068;20.806;2022-12-04T19:28:31;1.70;99.90
35491;DHT22;21605;52.068;20.806;2022-12-04T19:30:57;1.80;99.90
35491;DHT22;21605;52.068;20.806;2022-12-04T19:33:24;1.80;99.90
35491;DHT22;21605;52.068;20.806;2022-12-04T19:36:06;1.80;99.90
35491;DHT22;21605;52.068;20.806;2022-12-04T19:38:32;1.80;99.90
35491;DHT22;21605;52.068;20.806;2022-12-04T19:41:19;1.80;99.90
35491;DHT22;21605;52.068;20.806;2022-12-04T19:43:46;1.80;99.90
35491;DHT22;21605;52.068;20.806;2022-12-04T19:46:15;1.90;99.90
35491;DHT22;21605;52.068;20.806;2022-12-04T19:48:42;1.90;99.90
35491;DHT22;21605;52.068;20.806;2022-12-04T19:51:18;1.90;99.90
35491;DHT22;21605;52.068;20.806;2022-12-04T19:53:45;1.80;99.90
35491;DHT22;21605;52.068;20.806;2022-12-04T19:56:20;1.90;99.90
35491;DHT22;21605;52.068;20.806;2022-12-04T19:58:46;1.90;99.90
35491;DHT22;21605;52.068;20.806;2022-12-04T20:01:16;1.90;99.90
35491;DHT22;21605;52.068;20.806;2022-12-04T20:03:42;1.90;99.90
35491;DHT22;21605;52.068;20.806;2022-12-04T20:06:19;1.90;99.90
35491;DHT22;21605;52.068;20.806;2022-12-04T20:08:46;2.00;99.90
35491;DHT22;21605;52.068;20.806;2022-12-04T20:11:14;2.00;99.90
35491;DHT22;21605;52.068;20.806;2022-12-04T20:13:42;2.10;99.90
35491;DHT22;21605;52.068;20.806;2022-12-04T20:16:10;2.00;99.90
35491;DHT22;21605;52.068;20.806;2022-12-04T20:18:37;2.00;99.90
35491;DHT22;21605;52.068;20.806;2022-12-04T20:21:03;2.00;99.90
35491;DHT22;21605;52.068;20.806;2022-12-04T20:23:47;1.90;99.90
35491;DHT22;21605;52.068;20.806;2022-12-04T20:26:22;1.90;99.90
35491;DHT22;21605;52.068;20.806;2022-12-04T20:28:49;1.90;99.90
35491;DHT22;21605;52.068;20.806;2022-12-04T20:31:20;1.90;99.90
35491;DHT22;21605;52.068;20.806;2022-12-04T20:33:48;1.90;99.90
35491;DHT22;21605;52.068;20.806;2022-12-04T20:36:17;1.90;99.90
35491;DHT22;21605;52.068;20.806;2022-12-04T20:38:44;1.90;99.90
35491;DHT22;21605;52.068;20.806;2022-12-04T20:41:19;1.90;99.90
35491;DHT22;21605;52.068;20.806;2022-12-04T20:43:46;1.90;99.90
35491;DHT22;21605;52.068;20.806;2022-12-04T20:46:20;1.90;99.90
35491;DHT22;21605;52.068;20.806;2022-12-04T20:48:46;1.90;99.90
35491;DHT22;21605;52.068;20.806;2022-12-04T20:51:15;1.80;99.90
35491;DHT22;21605;52.068;20.806;2022-12-04T20:53:42;1.80;99.90
35491;DHT22;21605;52.068;20.806;2022-12-04T20:56:08;1.80;99.90
35491;DHT22;21605;52.068;20.806;2022-12-04T20:58:33;1.80;99.90
35491;DHT22;21605;52.068;20.806;2022-12-04T21:01:07;1.80;99.90
35491;DHT22;21605;52.068;20.806;2022-12-04T21:03:35;1.80;99.90
35491;DHT22;21605;52.068;20.806;2022-12-04T21:06:01;1.80;99.90
35491;DHT22;21605;52.068;20.806;2022-12-04T21:08:27;1.80;99.90
35491;DHT22;21605;52.068;20.806;2022-12-04T21:11:11;1.70;99.90
35491;DHT22;21605;52.068;20.806;2022-12-04T21:13:37;1.80;99.90
35491;DHT22;21605;52.068;20.806;2022-12-04T21:16:21;1.80;99.90
35491;DHT22;21605;52.068;20.806;2022-12-04T21:18:47;1.80;99.90
35491;DHT22;21605;52.068;20.806;2022-12-04T21:21:18;1.80;99.90
35491;DHT22;21605;52.068;20.806;2022-12-04T21:23:44;1.80;99.90
35491;DHT22;21605;52.068;20.806;2022-12-04T21:26:19;1.70;99.90
35491;DHT22;21605;52.068;20.806;2022-12-04T21:28:45;1.70;99.90
35491;DHT22;21605;52.068;20.806;2022-12-04T21:31:20;1.70;99.90
35491;DHT22;21605;52.068;20.806;2022-12-04T21:33:45;1.70;99.90
35491;DHT22;21605;52.068;20.806;2022-12-04T21:36:20;1.90;99.90
35491;DHT22;21605;52.068;20.806;2022-12-04T21:38:46;1.70;99.90
35491;DHT22;21605;52.068;20.806;2022-12-04T21:41:18;1.70;99.90
35491;DHT22;21605;52.068;20.806;2022-12-04T21:44:04;1.80;99.90
35491;DHT22;21605;52.068;20.806;2022-12-04T21:46:29;1.80;99.90
35491;DHT22;21605;52.068;20.806;2022-12-04T21:48:57;1.70;99.90
35491;DHT22;21605;52.068;20.806;2022-12-04T21:51:22;1.70;99.90
35491;DHT22;21605;52.068;20.806;2022-12-04T21:53:48;1.70;99.90
35491;DHT22;21605;52.068;20.806;2022-12-04T21:56:14;1.70;99.90
35491;DHT22;21605;52.068;20.806;2022-12-04T21:58:40;1.70;99.90
35491;DHT22;21605;52.068;20.806;2022-12-04T22:01:10;1.70;99.90
35491;DHT22;21605;52.068;20.806;2022-12-04T22:03:36;1.70;99.90